createdAt,value
2022-12-18T00:01:26.194Z,37.33
2022-12-18T00:03:54.981Z,31.20
2022-12-18T00:06:23.486Z,35.60
2022-12-18T00:08:50.469Z,34.08
2022-12-18T00:11:20.128Z,32.72
2022-12-18T00:13:47.562Z,29.38
2022-12-18T00:16:17.803Z,24.60
2022-12-18T00:18:44.789Z,31.48
2022-12-18T00:21:13.074Z,31.27
2022-12-18T00:23:42.501Z,28.58
2022-12-18T00:26:13.800Z,30.88
2022-12-18T00:28:40.696Z,30.23
2022-12-18T00:31:12.088Z,33.45
2022-12-18T00:33:40.055Z,30.05
2022-12-18T00:36:16.741Z,29.80
2022-12-18T00:38:44.950Z,36.05
2022-12-18T00:41:14.029Z,29.42
2022-12-18T00:43:41.627Z,34.40
2022-12-18T00:46:09.420Z,27.73
2022-12-18T00:48:37.038Z,32.83
2022-12-18T00:51:04.420Z,27.67
2022-12-18T00:53:31.842Z,30.52
2022-12-18T00:55:59.350Z,34.70
2022-12-18T00:58:26.808Z,30.33
2022-12-18T01:00:56.913Z,32.80
2022-12-18T01:03:24.402Z,26.67
2022-12-18T01:05:52.298Z,26.65
2022-12-18T01:08:19.800Z,34.28
2022-12-18T01:10:47.182Z,27.75
2022-12-18T01:13:14.649Z,28.25
2022-12-18T01:15:42.017Z,29.83
2022-12-18T01:18:11.791Z,33.45
2022-12-18T01:20:39.624Z,34.35
2022-12-18T01:23:07.183Z,28.83
2022-12-18T01:25:39.825Z,28.58
2022-12-18T01:28:10.579Z,31.23
2022-12-18T01:30:40.921Z,25.90
2022-12-18T01:35:42.713Z,39.22
2022-12-18T01:38:10.549Z,26.65
2022-12-18T01:40:38.142Z,28.90
2022-12-18T01:43:05.506Z,34.92
2022-12-18T01:45:36.227Z,29.13
2022-12-18T01:48:07.047Z,32.65
2022-12-18T01:50:41.024Z,29.25
2022-12-18T01:53:19.034Z,24.88
2022-12-18T01:55:46.348Z,26.52
2022-12-18T01:58:13.948Z,27.70
2022-12-18T02:00:41.721Z,28.70
2022-12-18T02:03:09.167Z,32.70
2022-12-18T02:05:49.300Z,27.13
2022-12-18T02:08:20.923Z,21.77
2022-12-18T02:10:48.802Z,31.85
2022-12-18T02:13:25.639Z,24.13
2022-12-18T02:15:59.011Z,24.85
2022-12-18T02:18:33.334Z,29.45
2022-12-18T02:21:32.588Z,25.00
2022-12-18T02:24:27.383Z,28.13
2022-12-18T02:27:07.750Z,27.70
2022-12-18T02:29:41.574Z,26.52
2022-12-18T02:32:14.375Z,28.77
2022-12-18T02:34:41.870Z,31.67
2022-12-18T02:37:18.574Z,23.48
2022-12-18T02:39:48.468Z,22.00
2022-12-18T02:42:16.754Z,23.52
2022-12-18T02:44:50.269Z,22.65
2022-12-18T02:47:23.427Z,23.80
2022-12-18T02:49:53.930Z,23.00
2022-12-18T02:52:30.505Z,20.45
2022-12-18T02:54:59.566Z,30.13
2022-12-18T02:57:40.798Z,24.95
2022-12-18T03:00:15.203Z,24.83
2022-12-18T03:03:00.421Z,29.63
2022-12-18T03:06:02.806Z,29.75
2022-12-18T03:08:35.397Z,21.38
2022-12-18T03:11:07.043Z,23.70
2022-12-18T03:13:48.627Z,26.90
2022-12-18T03:16:23.356Z,20.38
2022-12-18T03:18:56.946Z,23.48
2022-12-18T03:21:30.720Z,27.77
2022-12-18T03:23:58.933Z,25.63
2022-12-18T03:26:28.937Z,23.70
2022-12-18T03:29:04.256Z,27.20
2022-12-18T03:31:36.484Z,27.02
2022-12-18T03:34:10.030Z,27.60
2022-12-18T03:36:43.100Z,26.60
2022-12-18T03:39:10.501Z,25.02
2022-12-18T03:41:59.612Z,30.75
2022-12-18T03:44:42.365Z,25.10
2022-12-18T03:47:37.574Z,22.67
2022-12-18T03:50:13.447Z,27.63
2022-12-18T03:52:46.104Z,32.85
2022-12-18T03:55:14.002Z,23.27
2022-12-18T03:57:45.289Z,27.38
2022-12-18T04:00:15.546Z,25.85
2022-12-18T04:02:56.644Z,25.27
2022-12-18T04:05:34.207Z,25.98
2022-12-18T04:08:02.893Z,24.15
2022-12-18T04:10:33.221Z,25.15
2022-12-18T04:13:02.695Z,30.17
2022-12-18T04:15:30.731Z,21.35
2022-12-18T04:17:59.702Z,25.48
2022-12-18T04:20:35.895Z,23.80
2022-12-18T04:23:04.494Z,21.13
2022-12-18T04:25:32.097Z,27.20
2022-12-18T04:28:09.702Z,20.45
2022-12-18T04:30:39.141Z,22.45
2022-12-18T04:33:13.172Z,34.13
2022-12-18T04:35:42.652Z,21.05
2022-12-18T04:38:10.899Z,17.63
2022-12-18T04:40:39.373Z,22.57
2022-12-18T04:43:15.601Z,23.58
2022-12-18T04:45:42.960Z,18.63
2022-12-18T04:48:10.279Z,20.67
2022-12-18T04:50:38.367Z,25.40
2022-12-18T04:53:05.728Z,18.17
2022-12-18T04:55:33.057Z,19.08
2022-12-18T04:58:00.411Z,19.45
2022-12-18T05:00:27.771Z,18.27
2022-12-18T05:02:55.617Z,17.45
2022-12-18T05:05:23.142Z,22.92
2022-12-18T05:07:50.473Z,17.92
2022-12-18T05:10:17.939Z,19.08
2022-12-18T05:13:01.216Z,18.65
2022-12-18T05:15:30.599Z,19.40
2022-12-18T05:17:58.365Z,20.30
2022-12-18T05:20:26.108Z,21.55
2022-12-18T05:22:53.986Z,25.08
2022-12-18T05:25:21.341Z,23.20
2022-12-18T05:27:49.029Z,20.50
2022-12-18T05:30:16.726Z,19.13
2022-12-18T05:32:44.455Z,22.35
2022-12-18T05:35:12.283Z,19.27
2022-12-18T05:37:42.921Z,18.58
2022-12-18T05:40:10.995Z,16.25
2022-12-18T05:42:38.306Z,15.52
2022-12-18T05:45:06.106Z,21.33
2022-12-18T05:47:33.433Z,21.48
2022-12-18T05:50:00.796Z,18.33
2022-12-18T05:52:28.106Z,21.63
2022-12-18T05:54:55.456Z,18.10
2022-12-18T05:57:22.792Z,16.30
2022-12-18T05:59:50.218Z,22.65
2022-12-18T06:02:17.615Z,18.80
2022-12-18T06:04:44.963Z,18.95
2022-12-18T06:07:12.256Z,18.10
2022-12-18T06:09:39.592Z,16.52
2022-12-18T06:12:06.929Z,19.85
2022-12-18T06:14:34.232Z,13.98
2022-12-18T06:17:01.314Z,16.70
2022-12-18T06:19:28.628Z,20.38
2022-12-18T06:21:55.945Z,25.27
2022-12-18T06:24:23.274Z,16.38
2022-12-18T06:26:50.569Z,25.40
2022-12-18T06:29:17.928Z,21.40
2022-12-18T06:31:45.252Z,20.40
2022-12-18T06:34:12.608Z,23.42
2022-12-18T06:36:40.086Z,18.05
2022-12-18T06:39:07.405Z,19.80
2022-12-18T06:41:34.958Z,17.13
2022-12-18T06:44:02.298Z,24.38
2022-12-18T06:46:29.566Z,17.77
2022-12-18T06:48:56.895Z,16.42
2022-12-18T06:51:24.807Z,19.90
2022-12-18T06:53:52.314Z,25.48
2022-12-18T06:56:19.599Z,17.50
2022-12-18T06:58:46.991Z,21.80
2022-12-18T07:01:14.627Z,17.13
2022-12-18T07:03:43.178Z,19.63
2022-12-18T07:06:18.876Z,17.20
2022-12-18T07:08:46.693Z,21.08
2022-12-18T07:11:14.544Z,20.98
2022-12-18T07:13:42.181Z,18.85
2022-12-18T07:16:18.372Z,24.42
2022-12-18T07:18:48.698Z,22.75
2022-12-18T07:21:18.716Z,14.80
2022-12-18T07:23:48.926Z,20.92
2022-12-18T07:26:19.367Z,19.50
2022-12-18T07:31:19.513Z,23.33
2022-12-18T07:33:48.844Z,16.45
2022-12-18T07:36:16.494Z,20.92
2022-12-18T07:38:44.024Z,27.67
2022-12-18T07:41:13.397Z,20.05
2022-12-18T07:43:41.855Z,18.90
2022-12-18T07:46:10.154Z,16.80
2022-12-18T07:48:37.520Z,25.85
2022-12-18T07:51:06.639Z,44.67
2022-12-18T07:53:35.287Z,34.20
2022-12-18T07:56:26.447Z,27.05
2022-12-18T07:58:53.385Z,23.67
2022-12-18T08:01:21.321Z,21.80
2022-12-18T08:03:48.433Z,18.30
2022-12-18T08:06:17.473Z,24.58
2022-12-18T08:08:44.739Z,22.15
2022-12-18T08:11:12.125Z,20.65
2022-12-18T08:13:39.688Z,22.08
2022-12-18T08:16:08.588Z,18.58
2022-12-18T08:18:37.987Z,20.52
2022-12-18T08:21:24.087Z,17.00
2022-12-18T08:23:52.741Z,22.20
2022-12-18T08:26:20.988Z,20.67
2022-12-18T08:28:48.608Z,19.20
2022-12-18T08:31:16.945Z,15.32
2022-12-18T08:33:44.490Z,17.90
2022-12-18T08:36:12.216Z,15.20
2022-12-18T08:38:39.733Z,20.52
2022-12-18T08:41:09.621Z,16.35
2022-12-18T08:43:55.618Z,16.67
2022-12-18T08:46:25.091Z,26.17
2022-12-18T08:48:53.041Z,25.83
2022-12-18T08:51:20.756Z,44.10
2022-12-18T08:53:48.194Z,34.15
2022-12-18T08:56:16.084Z,42.35
2022-12-18T08:58:43.810Z,32.80
2022-12-18T09:01:13.398Z,31.42
2022-12-18T09:03:41.423Z,33.83
2022-12-18T09:06:09.591Z,28.15
2022-12-18T09:08:38.185Z,24.05
2022-12-18T09:11:06.225Z,33.65
2022-12-18T09:13:33.513Z,27.85
2022-12-18T09:16:00.827Z,27.80
2022-12-18T09:18:28.120Z,25.83
2022-12-18T09:20:55.443Z,26.77
2022-12-18T09:23:22.757Z,19.98
2022-12-18T09:25:50.384Z,23.67
2022-12-18T09:35:25.158Z,17.25
2022-12-18T09:37:52.465Z,17.77
2022-12-18T09:40:22.748Z,15.38
2022-12-18T09:42:56.751Z,17.92
2022-12-18T09:45:24.560Z,24.80
2022-12-18T09:47:53.376Z,16.27
2022-12-18T09:50:20.679Z,19.83
2022-12-18T09:52:53.406Z,17.17
2022-12-18T09:55:37.496Z,20.17
2022-12-18T09:58:30.099Z,20.20
2022-12-18T10:00:57.882Z,17.70
2022-12-18T10:03:25.332Z,20.95
2022-12-18T10:06:00.533Z,19.33
2022-12-18T10:09:06.871Z,21.23
2022-12-18T10:11:43.130Z,19.58
2022-12-18T10:14:10.537Z,21.92
2022-12-18T10:16:59.461Z,21.23
2022-12-18T10:19:39.867Z,23.00
2022-12-18T10:22:25.761Z,24.38
2022-12-18T10:25:22.910Z,15.93
2022-12-18T10:27:55.868Z,19.67
2022-12-18T10:30:25.536Z,20.05
2022-12-18T10:32:53.623Z,14.13
2022-12-18T10:35:26.872Z,13.23
2022-12-18T10:38:06.471Z,17.58
2022-12-18T10:40:48.281Z,14.40
2022-12-18T10:43:17.417Z,15.20
2022-12-18T10:46:19.191Z,17.00
2022-12-18T10:48:49.356Z,23.45
2022-12-18T10:54:18.310Z,21.45
2022-12-18T10:56:46.365Z,17.13
2022-12-18T10:59:15.732Z,17.40
2022-12-18T11:01:53.925Z,18.80
2022-12-18T11:04:26.812Z,27.23
2022-12-18T11:06:56.813Z,19.13
2022-12-18T11:11:55.277Z,14.02
2022-12-18T11:14:30.734Z,19.33
2022-12-18T11:19:55.710Z,14.60
2022-12-18T11:22:28.973Z,15.65
2022-12-18T11:25:33.217Z,16.55
2022-12-18T11:28:03.072Z,13.63
2022-12-18T11:30:32.556Z,17.75
2022-12-18T11:33:12.069Z,12.60
2022-12-18T11:35:56.618Z,16.13
2022-12-18T11:38:27.059Z,14.98
2022-12-18T11:41:17.219Z,14.05
2022-12-18T11:46:39.964Z,14.25
2022-12-18T11:49:23.527Z,11.77
2022-12-18T11:52:20.073Z,12.32
2022-12-18T11:54:47.407Z,23.38
2022-12-18T11:57:30.223Z,14.80
2022-12-18T12:00:18.615Z,15.88
2022-12-18T12:02:46.088Z,12.82
2022-12-18T12:05:19.371Z,14.98
2022-12-18T12:07:46.794Z,12.90
2022-12-18T12:10:26.361Z,12.88
2022-12-18T12:13:07.293Z,12.55
2022-12-18T12:15:41.172Z,16.25
2022-12-18T12:18:40.085Z,13.98
2022-12-18T12:21:36.949Z,17.67
2022-12-18T12:24:19.483Z,12.27
2022-12-18T12:26:47.048Z,15.05
2022-12-18T12:29:32.768Z,11.98
2022-12-18T12:32:43.591Z,13.82
2022-12-18T12:35:11.736Z,14.25
2022-12-18T12:37:52.175Z,13.88
2022-12-18T12:40:56.662Z,17.15
2022-12-18T12:43:49.480Z,10.98
2022-12-18T12:46:20.947Z,10.68
2022-12-18T12:48:53.530Z,12.77
2022-12-18T12:51:31.362Z,17.88
2022-12-18T12:54:00.922Z,9.07
2022-12-18T12:56:43.432Z,12.02
2022-12-18T12:59:36.444Z,13.77
2022-12-18T13:02:08.378Z,10.77
2022-12-18T13:05:23.983Z,10.95
2022-12-18T13:08:10.727Z,8.50
2022-12-18T13:10:42.731Z,14.60
2022-12-18T13:13:17.144Z,7.93
2022-12-18T13:16:07.985Z,13.65
2022-12-18T13:18:36.169Z,10.32
2022-12-18T13:21:26.483Z,11.18
2022-12-18T13:23:53.859Z,10.25
2022-12-18T13:26:31.266Z,10.80
2022-12-18T13:28:59.560Z,11.20
2022-12-18T13:31:59.930Z,11.40
2022-12-18T13:34:31.850Z,9.27
2022-12-18T13:37:40.797Z,10.68
2022-12-18T13:40:49.222Z,9.57
2022-12-18T13:43:19.314Z,10.65
2022-12-18T13:48:20.650Z,16.02
2022-12-18T13:50:55.940Z,12.35
2022-12-18T13:53:30.725Z,8.27
2022-12-18T13:55:58.492Z,21.40
2022-12-18T13:58:25.846Z,13.48
2022-12-18T14:00:53.207Z,16.63
2022-12-18T14:03:28.104Z,10.32
2022-12-18T14:05:59.858Z,10.98
2022-12-18T14:08:33.315Z,8.27
2022-12-18T14:11:00.673Z,8.23
2022-12-18T14:13:35.077Z,7.65
2022-12-18T14:16:04.509Z,10.13
2022-12-18T14:18:46.858Z,7.65
2022-12-18T14:21:26.984Z,7.45
2022-12-18T14:24:16.732Z,9.82
2022-12-18T14:26:47.396Z,8.57
2022-12-18T14:29:32.058Z,7.60
2022-12-18T14:32:28.415Z,12.25
2022-12-18T14:34:56.368Z,11.77
2022-12-18T14:37:25.445Z,17.75
2022-12-18T14:39:58.141Z,12.10
2022-12-18T14:42:29.572Z,7.70
2022-12-18T14:45:41.073Z,12.23
2022-12-18T14:48:36.148Z,11.48
2022-12-18T14:51:07.144Z,9.23
2022-12-18T14:53:37.744Z,14.32
2022-12-18T14:56:20.648Z,18.77
2022-12-18T14:59:25.341Z,7.90
2022-12-18T15:02:19.567Z,10.52
2022-12-18T15:04:47.144Z,10.98
2022-12-18T15:07:21.700Z,11.02
2022-12-18T15:10:09.037Z,10.02
2022-12-18T15:12:41.260Z,12.48
2022-12-18T15:15:37.051Z,10.45
2022-12-18T15:18:08.438Z,12.85
2022-12-18T15:20:43.537Z,11.23
2022-12-18T15:23:19.690Z,11.30
2022-12-18T15:25:48.912Z,14.02
2022-12-18T15:28:30.193Z,15.63
2022-12-18T15:31:22.540Z,12.68
2022-12-18T15:33:55.976Z,13.07
2022-12-18T15:36:26.321Z,11.23
2022-12-18T15:39:02.234Z,11.30
2022-12-18T15:41:37.664Z,12.32
2022-12-18T15:44:23.392Z,17.85
2022-12-18T15:46:50.856Z,13.55
2022-12-18T15:49:18.170Z,14.15
2022-12-18T15:51:45.585Z,17.65
2022-12-18T15:54:16.643Z,16.75
2022-12-18T15:57:03.142Z,14.48
2022-12-18T15:59:30.499Z,12.75
2022-12-18T16:01:58.172Z,12.88
2022-12-18T16:04:26.311Z,14.30
2022-12-18T16:09:40.961Z,16.38
2022-12-18T16:12:23.612Z,13.75
2022-12-18T16:14:51.009Z,14.10
2022-12-18T16:17:18.736Z,17.55
2022-12-18T16:19:46.132Z,15.82
2022-12-18T16:22:21.139Z,10.68
2022-12-18T16:24:48.761Z,16.98
2022-12-18T16:27:16.090Z,18.27
2022-12-18T16:29:43.699Z,17.90
2022-12-18T16:32:18.125Z,16.67
2022-12-18T16:34:45.797Z,14.88
2022-12-18T16:37:14.371Z,15.07
2022-12-18T16:39:42.143Z,18.65
2022-12-18T16:42:20.348Z,13.75
2022-12-18T16:44:49.415Z,19.33
2022-12-18T16:47:17.191Z,39.17
2022-12-18T16:49:46.005Z,18.85
2022-12-18T16:52:13.985Z,14.05
2022-12-18T16:54:41.337Z,15.57
2022-12-18T16:57:16.227Z,13.70
2022-12-18T16:59:43.542Z,22.52
2022-12-18T17:02:23.444Z,13.93
2022-12-18T17:04:51.667Z,14.88
2022-12-18T17:07:18.968Z,18.88
2022-12-18T17:09:46.289Z,17.70
2022-12-18T17:12:13.709Z,16.35
2022-12-18T17:14:41.025Z,21.75
2022-12-18T17:17:20.810Z,16.88
2022-12-18T17:19:49.554Z,20.60
2022-12-18T17:22:16.826Z,19.73
2022-12-18T17:24:44.261Z,23.25
2022-12-18T17:27:11.602Z,15.00
2022-12-18T17:29:43.885Z,11.40
2022-12-18T17:32:14.662Z,17.20
2022-12-18T17:34:42.253Z,14.32
2022-12-18T17:37:10.116Z,15.00
2022-12-18T17:39:37.495Z,15.43
2022-12-18T17:42:05.252Z,19.85
2022-12-18T17:44:34.437Z,23.48
2022-12-18T17:47:02.013Z,17.58
2022-12-18T17:49:29.478Z,14.48
2022-12-18T17:51:56.785Z,17.65
2022-12-18T17:54:24.120Z,19.35
2022-12-18T17:56:51.491Z,15.88
2022-12-18T17:59:18.842Z,15.63
2022-12-18T18:01:46.259Z,19.75
2022-12-18T18:04:14.218Z,20.45
2022-12-18T18:06:41.711Z,18.10
2022-12-18T18:09:16.045Z,20.15
2022-12-18T18:12:02.765Z,16.08
2022-12-18T18:14:30.386Z,15.10
2022-12-18T18:16:59.191Z,17.40
2022-12-18T18:19:33.384Z,14.80
2022-12-18T18:22:01.634Z,17.33
2022-12-18T18:24:30.400Z,22.13
2022-12-18T18:27:00.011Z,16.73
2022-12-18T18:29:30.561Z,19.48
2022-12-18T18:31:58.632Z,16.25
2022-12-18T18:34:28.935Z,15.52
2022-12-18T18:36:56.316Z,17.98
2022-12-18T18:39:23.631Z,30.52
2022-12-18T18:41:51.467Z,23.25
2022-12-18T18:44:24.444Z,26.40
2022-12-18T18:46:57.527Z,16.27
2022-12-18T18:49:27.190Z,18.95
2022-12-18T18:51:56.933Z,18.23
2022-12-18T18:54:24.725Z,20.63
2022-12-18T18:59:39.946Z,15.85
2022-12-18T19:02:07.878Z,24.23
2022-12-18T19:04:37.862Z,22.40
2022-12-18T19:07:14.569Z,25.83
2022-12-18T19:09:57.791Z,23.33
2022-12-18T19:12:47.470Z,24.17
2022-12-18T19:15:14.916Z,22.40
2022-12-18T19:17:42.415Z,27.92
2022-12-18T19:20:15.193Z,22.42
2022-12-18T19:22:42.911Z,19.85
2022-12-18T19:25:11.235Z,20.90
2022-12-18T19:27:40.168Z,23.85
2022-12-18T19:30:07.976Z,17.90
2022-12-18T19:32:35.552Z,18.63
2022-12-18T19:35:03.910Z,18.60
2022-12-18T19:37:32.077Z,22.45
2022-12-18T19:39:59.752Z,23.92
2022-12-18T19:42:35.207Z,28.13
2022-12-18T19:45:02.996Z,15.68
2022-12-18T19:47:30.366Z,17.20
2022-12-18T19:49:57.960Z,16.70
2022-12-18T19:52:25.959Z,20.73
2022-12-18T19:54:53.974Z,18.50
2022-12-18T19:57:21.811Z,20.38
2022-12-18T19:59:49.231Z,18.30
2022-12-18T20:02:16.892Z,23.98
2022-12-18T20:04:44.424Z,23.08
2022-12-18T20:07:11.889Z,20.85
2022-12-18T20:09:39.559Z,21.08
2022-12-18T20:12:07.179Z,18.48
2022-12-18T20:14:34.819Z,19.27
2022-12-18T20:17:02.408Z,18.67
2022-12-18T20:19:29.868Z,14.75
2022-12-18T20:21:57.812Z,19.67
2022-12-18T20:24:25.252Z,25.35
2022-12-18T20:26:52.655Z,16.27
2022-12-18T20:29:19.977Z,17.85
2022-12-18T20:31:47.544Z,26.23
2022-12-18T20:34:14.922Z,14.75
2022-12-18T20:36:42.628Z,20.05
2022-12-18T20:39:12.119Z,23.35
2022-12-18T20:44:22.699Z,19.90
2022-12-18T20:46:53.102Z,16.95
2022-12-18T20:49:20.492Z,20.17
2022-12-18T20:51:50.469Z,19.10
2022-12-18T20:54:17.784Z,20.13
2022-12-18T20:56:45.122Z,19.15
2022-12-18T20:59:12.942Z,20.65
2022-12-18T21:01:46.030Z,21.58
2022-12-18T21:04:18.188Z,25.15
2022-12-18T21:06:50.917Z,18.65
2022-12-18T21:09:18.993Z,21.20
2022-12-18T21:12:05.017Z,16.25
2022-12-18T21:14:32.507Z,19.95
2022-12-18T21:17:02.905Z,18.95
2022-12-18T21:19:30.444Z,28.10
2022-12-18T21:21:58.085Z,18.73
2022-12-18T21:24:25.698Z,22.60
2022-12-18T21:26:54.643Z,20.92
2022-12-18T21:29:26.235Z,20.30
2022-12-18T21:31:54.717Z,22.77
2022-12-18T21:34:22.014Z,18.20
2022-12-18T21:36:49.740Z,23.60
2022-12-18T21:39:17.435Z,21.25
2022-12-18T21:42:11.309Z,16.52
2022-12-18T21:44:42.028Z,17.63
2022-12-18T21:47:20.829Z,19.17
2022-12-18T21:49:51.716Z,21.33
2022-12-18T21:52:19.086Z,20.27
2022-12-18T21:54:46.391Z,21.05
2022-12-18T21:57:13.800Z,18.38
2022-12-18T21:59:43.376Z,20.30
2022-12-18T22:02:18.945Z,19.85
2022-12-18T22:04:47.014Z,18.30
2022-12-18T22:07:15.752Z,24.52
2022-12-18T22:09:43.499Z,17.35
2022-12-18T22:12:13.791Z,18.92
2022-12-18T22:17:08.049Z,20.98
2022-12-18T22:19:42.647Z,23.08
2022-12-18T22:22:10.355Z,20.98
2022-12-18T22:24:37.642Z,22.67
2022-12-18T22:27:05.023Z,18.45
2022-12-18T22:29:50.991Z,18.73
2022-12-18T22:32:23.769Z,19.00
2022-12-18T22:35:04.884Z,20.85
2022-12-18T22:37:34.460Z,21.45
2022-12-18T22:40:03.346Z,22.33
2022-12-18T22:42:31.412Z,19.05
2022-12-18T22:45:00.311Z,20.85
2022-12-18T22:47:30.047Z,20.83
2022-12-18T22:52:25.457Z,20.50
2022-12-18T22:54:54.084Z,19.45
2022-12-18T22:57:22.413Z,19.50
2022-12-18T22:59:50.311Z,19.75
2022-12-18T23:02:19.040Z,20.58
2022-12-18T23:04:47.675Z,19.85
2022-12-18T23:07:15.248Z,18.45
2022-12-18T23:09:42.575Z,17.77
2022-12-18T23:12:15.983Z,21.25
2022-12-18T23:14:43.976Z,16.13
2022-12-18T23:17:11.478Z,20.38
2022-12-18T23:19:41.641Z,20.20
2022-12-18T23:22:11.884Z,19.95
2022-12-18T23:24:39.532Z,19.77
2022-12-18T23:27:09.383Z,22.33
2022-12-18T23:29:39.528Z,18.45
2022-12-18T23:32:06.986Z,19.10
2022-12-18T23:34:34.278Z,24.50
2022-12-18T23:37:03.655Z,39.42
2022-12-18T23:39:31.180Z,45.58
2022-12-18T23:42:01.583Z,54.08
2022-12-18T23:44:28.994Z,37.45
2022-12-18T23:46:56.428Z,37.90
2022-12-18T23:49:24.066Z,36.80
2022-12-18T23:51:51.716Z,27.20
2022-12-18T23:54:22.378Z,24.88
2022-12-18T23:56:59.936Z,21.95
2022-12-18T23:59:27.219Z,25.02
